Weather reports worldwide

Advertisment
Cairnwell, United Kingdom (3072): temperature & dewpoint: 04.12.2018 14:00:00 - 10.12.2018 14:00:00 (GMT)Cairnwell, United Kingdom (3072): wind speed & gusts: 04.12.2018 14:00:00 - 10.12.2018 14:00:00 (GMT)Cairnwell, United Kingdom (3072): wind direction: 04.12.2018 14:00:00 - 10.12.2018 14:00:00 (GMT)
Date & Time tt [°C] td [°C] ff [km/h] ff [kn] fx [km/h] fx [kn] dd
10.12.2018 14:00:00 -3,1 -4,9 15 8 - - W
10.12.2018 13:00:00 -3,3 -8,2 8 4 - - W
10.12.2018 12:00:00 -3,7 -4,4 15 8 - - NW
10.12.2018 11:00:00 -3,8 -3,8 24 13 52 28 NNW
10.12.2018 10:00:00 -3,6 -3,6 31 17 54 29 NNW
10.12.2018 09:00:00 -3,0 -3,0 42 23 50 27 N
10.12.2018 08:00:00 -3,0 -3,0 28 15 50 27 N
10.12.2018 07:00:00 -3,0 -3,0 35 19 - - NW
10.12.2018 06:00:00 -2,9 -2,9 21 11 50 27 N
10.12.2018 05:00:00 -2,8 -2,8 35 19 50 27 NNW
10.12.2018 04:00:00 -2,6 -2,6 24 13 - - NNW
10.12.2018 03:00:00 -2,6 -2,6 31 17 - - NW
10.12.2018 02:00:00 -2,7 -2,7 15 8 - - NNW
10.12.2018 01:00:00 -2,5 -2,5 22 12 - - NNW
10.12.2018 00:00:00 -2,5 -2,5 28 15 61 33 NW
09.12.2018 23:00:00 -2,6 -2,6 44 24 61 33 NW
09.12.2018 22:00:00 -2,2 -2,2 42 23 61 33 NW
09.12.2018 21:00:00 -2,3 -2,3 48 26 59 32 WNW
09.12.2018 20:00:00 -2,3 -2,3 44 24 65 35 NW
09.12.2018 19:00:00 -2,4 -2,4 48 26 55 30 WNW
09.12.2018 18:00:00 -2,6 -2,6 46 25 55 30 NW
09.12.2018 17:00:00 -2,8 -2,8 37 20 54 29 NW
09.12.2018 16:00:00 -2,6 -2,6 44 24 54 29 NW
09.12.2018 15:00:00 -3,0 -4,1 42 23 48 26 NW
09.12.2018 14:00:00 -2,7 -3,8 37 20 55 30 NNW
09.12.2018 13:00:00 -2,6 -4,6 46 25 57 31 NW
09.12.2018 12:00:00 -2,6 -3,1 42 23 67 36 NNW
09.12.2018 11:00:00 -3,0 -3,2 63 34 76 41 NNW
09.12.2018 10:00:00 -2,4 -2,4 39 21 81 44 N
09.12.2018 09:00:00 -2,0 -2,0 57 31 91 49 NNW
09.12.2018 08:00:00 -2,0 -2,0 74 40 91 49 NNW
09.12.2018 07:00:00 -2,1 -2,1 78 42 102 55 NNW
09.12.2018 06:00:00 -2,0 -2,0 81 44 104 56 NNW
09.12.2018 05:00:00 -2,1 -2,1 70 38 93 50 NNW
09.12.2018 04:00:00 -1,8 -1,8 57 31 81 44 N
09.12.2018 03:00:00 -1,2 -1,2 54 29 76 41 N
09.12.2018 02:00:00 -1,1 -1,1 52 28 68 37 NNW
09.12.2018 01:00:00 -1,0 -1,0 42 23 63 34 N
09.12.2018 00:00:00 -1,0 -1,0 35 19 67 36 N
08.12.2018 23:00:00 -0,9 -0,9 48 26 63 34 NNW
08.12.2018 22:00:00 -0,7 -0,7 34 18 52 28 N
08.12.2018 21:00:00 -0,7 -0,7 37 20 46 25 NNW
08.12.2018 20:00:00 -0,6 -0,6 29 16 59 32 N
08.12.2018 19:00:00 0,1 0,1 50 27 59 32 NW
08.12.2018 18:00:00 0,2 0,2 42 23 57 31 NW
08.12.2018 17:00:00 0,4 0,4 48 26 61 33 WNW
08.12.2018 16:00:00 0,6 0,6 42 23 70 38 WNW
08.12.2018 15:00:00 1,0 0,6 35 19 63 34 W
08.12.2018 14:00:00 1,1 0,6 37 20 81 44 W
08.12.2018 13:00:00 1,2 0,7 67 36 89 48 WNW
08.12.2018 12:00:00 1,2 1,2 37 20 109 59 W
08.12.2018 11:00:00 1,3 1,1 70 38 106 57 W
08.12.2018 10:00:00 0,9 0,9 89 48 117 63 WNW
08.12.2018 09:00:00 0,8 0,8 81 44 115 62 WNW
08.12.2018 08:00:00 1,1 1,1 96 52 113 61 WNW
08.12.2018 07:00:00 1,0 1,0 94 51 126 68 WNW
08.12.2018 06:00:00 1,2 1,2 93 50 130 70 WNW
08.12.2018 05:00:00 1,3 1,3 80 43 126 68 WNW
08.12.2018 04:00:00 1,6 0,1 85 46 144 78 W
08.12.2018 03:00:00 1,5 0,4 91 49 144 78 W
08.12.2018 02:00:00 1,0 1,0 70 38 115 62 W
08.12.2018 01:00:00 1,1 1,1 76 41 109 59 W
08.12.2018 00:00:00 0,8 0,8 57 31 104 56 W
07.12.2018 23:00:00 1,7 1,3 67 36 100 54 W
07.12.2018 22:00:00 1,5 1,1 78 42 126 68 W
07.12.2018 21:00:00 1,6 1,5 91 49 143 77 W
07.12.2018 20:00:00 0,8 0,8 91 49 124 67 WSW
07.12.2018 19:00:00 -0,1 -0,1 72 39 104 56 WSW
07.12.2018 18:00:00 -0,2 -0,2 74 40 119 64 WSW
07.12.2018 17:00:00 -0,6 -0,6 74 40 107 58 WSW
07.12.2018 16:00:00 -1,0 -1,0 67 36 89 48 SW
07.12.2018 15:00:00 -1,1 -1,1 61 33 98 53 SW
07.12.2018 14:00:00 -1,1 -1,1 81 44 109 59 WSW
07.12.2018 13:00:00 -0,9 -0,9 59 32 106 57 WSW
07.12.2018 12:00:00 -0,8 -0,8 68 37 115 62 SW
07.12.2018 11:00:00 -0,7 -0,7 74 40 100 54 WSW
07.12.2018 10:00:00 -0,7 -0,7 67 36 96 52 SW
07.12.2018 09:00:00 -0,2 -0,2 70 38 96 52 SW
07.12.2018 08:00:00 0,2 0,2 65 35 100 54 SW
07.12.2018 07:00:00 1,1 1,1 76 41 100 54 WSW
07.12.2018 06:00:00 2,6 2,6 50 27 83 45 SSW
07.12.2018 05:00:00 2,2 2,2 61 33 87 47 SSE
07.12.2018 04:00:00 1,6 1,6 63 34 80 43 SSE
07.12.2018 03:00:00 1,4 1,4 50 27 74 40 SSE
07.12.2018 02:00:00 1,8 1,8 59 32 72 39 S
07.12.2018 01:00:00 2,1 2,1 50 27 67 36 S
07.12.2018 00:00:00 2,2 2,2 37 20 46 25 S
06.12.2018 23:00:00 1,2 1,2 24 13 - - S
06.12.2018 22:00:00 1,5 1,1 18 10 50 27 S
06.12.2018 21:00:00 2,6 -0,1 44 24 78 42 W
06.12.2018 20:00:00 2,1 1,1 16 9 76 41 SW
06.12.2018 19:00:00 2,7 1,9 57 31 85 46 W
06.12.2018 18:00:00 2,9 0,6 42 23 106 57 W
06.12.2018 17:00:00 2,8 1,8 74 40 98 53 W
06.12.2018 16:00:00 3,5 1,4 63 34 91 49 W
06.12.2018 15:00:00 3,9 2,0 57 31 96 52 W
06.12.2018 14:00:00 4,7 3,6 68 37 100 54 W
06.12.2018 13:00:00 4,4 4,4 76 41 117 63 WSW
06.12.2018 12:00:00 4,0 4,0 52 28 83 45 SW
06.12.2018 11:00:00 2,8 2,8 59 32 70 38 SW
06.12.2018 10:00:00 1,3 1,3 55 30 68 37 SSW
06.12.2018 09:00:00 0,8 0,8 52 28 59 32 SSW
06.12.2018 08:00:00 0,4 0,4 54 29 68 37 SSW
06.12.2018 07:00:00 0,8 0,8 48 26 61 33 S
06.12.2018 06:00:00 1,0 1,0 48 26 59 32 S
06.12.2018 05:00:00 1,1 1,1 44 24 48 26 S
06.12.2018 04:00:00 1,1 1,1 41 22 48 26 S
06.12.2018 03:00:00 1,1 1,1 37 20 46 25 S
06.12.2018 02:00:00 1,0 1,0 29 16 - - SSE
06.12.2018 01:00:00 1,0 1,0 28 15 - - S
06.12.2018 00:00:00 0,9 0,9 24 13 - - SE
05.12.2018 23:00:00 0,8 0,8 26 14 - - SE
05.12.2018 22:00:00 0,6 0,6 22 12 54 29 SE
05.12.2018 21:00:00 0,0 0,0 31 17 52 28 ESE
05.12.2018 20:00:00 -0,1 -0,1 29 16 - - SE
05.12.2018 19:00:00 -0,2 -0,2 15 8 - - E
05.12.2018 18:00:00 -0,3 -0,3 29 16 57 31 ESE
05.12.2018 17:00:00 -0,5 -0,5 28 15 52 28 ESE
05.12.2018 16:00:00 -0,7 -0,7 35 19 55 30 ESE
05.12.2018 15:00:00 -0,7 -0,7 37 20 57 31 ESE
05.12.2018 14:00:00 -1,0 -1,0 39 21 59 32 ESE
05.12.2018 13:00:00 -1,3 -1,3 41 22 72 39 SE
05.12.2018 12:00:00 -2,0 -2,0 42 23 70 38 SE
05.12.2018 11:00:00 -2,4 -2,4 35 19 55 30 SSE
05.12.2018 10:00:00 -2,7 -2,7 28 15 - - SSE
05.12.2018 09:00:00 -3,1 -3,7 37 20 48 26 SE
05.12.2018 08:00:00 -3,0 -3,3 24 13 - - SE
05.12.2018 07:00:00 -3,1 -3,4 21 11 - - SSE
05.12.2018 06:00:00 -3,0 -3,3 16 9 - - SSE
05.12.2018 05:00:00 -2,9 -3,2 11 6 - - SSW
05.12.2018 04:00:00 -2,6 -2,9 13 7 - - WSW
05.12.2018 03:00:00 -3,1 -3,1 15 8 - - SW
05.12.2018 02:00:00 -3,0 -3,4 16 9 - - SW
05.12.2018 01:00:00 -2,9 -4,0 22 12 - - W
05.12.2018 00:00:00 -2,7 -3,1 15 8 - - W
04.12.2018 23:00:00 -2,7 -3,1 18 10 - - WNW
04.12.2018 22:00:00 -2,7 -2,9 26 14 - - WNW
04.12.2018 21:00:00 -2,7 -2,7 28 15 - - W
04.12.2018 20:00:00 -2,7 -2,7 31 17 - - WNW
04.12.2018 19:00:00 -2,8 -2,8 22 12 - - WNW
04.12.2018 18:00:00 -2,7 -2,7 18 10 - - WNW
04.12.2018 17:00:00 -3,1 -3,1 26 14 - - WNW
04.12.2018 16:00:00 -2,8 -2,8 26 14 - - WNW
04.12.2018 15:00:00 -2,6 -2,8 15 8 - - WNW
04.12.2018 14:00:00 -2,5 -2,8 21 11 - - W

tt = temperature
td = dewpoint
ff = wind speed
fx = gusts
dd = wind direction

Next stations